createdAt,value
2023-04-09T00:00:35.760Z,29.32
2023-04-09T00:01:35.798Z,29.31
2023-04-09T00:02:35.787Z,29.42
2023-04-09T00:03:35.944Z,29.52
2023-04-09T00:04:35.843Z,29.32
2023-04-09T00:05:35.766Z,29.21
2023-04-09T00:06:35.770Z,29.21
2023-04-09T00:07:35.770Z,29.22
2023-04-09T00:08:35.776Z,29.21
2023-04-09T00:09:35.774Z,29.22
2023-04-09T00:10:35.810Z,29.32
2023-04-09T00:11:35.780Z,29.42
2023-04-09T00:12:35.777Z,29.31
2023-04-09T00:13:39.525Z,29.42
2023-04-09T00:14:35.788Z,29.50
2023-04-09T00:15:35.787Z,29.41
2023-04-09T00:16:35.835Z,29.50
2023-04-09T00:17:35.797Z,29.31
2023-04-09T00:18:35.790Z,29.22
2023-04-09T00:19:35.795Z,29.31
2023-04-09T00:20:35.796Z,28.73
2023-04-09T00:21:35.796Z,29.52
2023-04-09T00:22:35.800Z,29.13
2023-04-09T00:23:35.810Z,28.84
2023-04-09T00:24:35.811Z,29.31
2023-04-09T00:25:35.806Z,29.02
2023-04-09T00:26:35.844Z,29.21
2023-04-09T00:27:35.806Z,29.11
2023-04-09T00:28:35.813Z,28.83
2023-04-09T00:29:35.816Z,29.31
2023-04-09T00:30:35.817Z,29.42
2023-04-09T00:31:35.838Z,29.31
2023-04-09T00:32:35.843Z,28.94
2023-04-09T00:33:35.823Z,29.11
2023-04-09T00:34:35.825Z,29.22
2023-04-09T00:35:35.852Z,29.02
2023-04-09T00:36:35.829Z,29.02
2023-04-09T00:37:35.830Z,29.21
2023-04-09T00:38:35.836Z,28.84
2023-04-09T00:39:35.835Z,29.03
2023-04-09T00:40:35.839Z,28.94
2023-04-09T00:41:35.838Z,28.94
2023-04-09T00:42:35.869Z,28.94
2023-04-09T00:43:35.840Z,29.02
2023-04-09T00:44:35.877Z,28.84
2023-04-09T00:45:35.942Z,28.94
2023-04-09T00:46:35.846Z,28.84
2023-04-09T00:47:35.941Z,28.94
2023-04-09T00:48:35.861Z,28.83
2023-04-09T00:49:35.857Z,28.92
2023-04-09T00:50:35.861Z,28.94
2023-04-09T00:51:35.857Z,29.03
2023-04-09T00:52:35.867Z,28.92
2023-04-09T00:53:35.866Z,29.32
2023-04-09T00:54:35.870Z,29.11
2023-04-09T00:55:35.870Z,28.83
2023-04-09T00:56:35.877Z,28.94
2023-04-09T00:57:35.870Z,28.92
2023-04-09T00:58:35.920Z,29.02
2023-04-09T00:59:35.871Z,28.92
2023-04-09T01:00:35.881Z,29.03
2023-04-09T01:01:36.169Z,29.32
2023-04-09T01:02:36.058Z,28.74
2023-04-09T01:03:36.085Z,29.03
2023-04-09T01:04:35.890Z,29.21
2023-04-09T01:05:35.887Z,29.21
2023-04-09T01:06:35.884Z,28.74
2023-04-09T01:07:35.895Z,28.83
2023-04-09T01:08:35.893Z,28.83
2023-04-09T01:09:35.889Z,29.31
2023-04-09T01:10:35.909Z,29.41
2023-04-09T01:11:36.004Z,28.92
2023-04-09T01:12:35.904Z,28.92
2023-04-09T01:13:35.894Z,28.84
2023-04-09T01:14:35.927Z,28.94
2023-04-09T01:15:35.896Z,28.83
2023-04-09T01:16:35.964Z,28.83
2023-04-09T01:17:35.945Z,29.50
2023-04-09T01:18:35.911Z,28.83
2023-04-09T01:19:35.907Z,29.21
2023-04-09T01:20:35.913Z,28.92
2023-04-09T01:21:35.911Z,28.92
2023-04-09T01:22:35.918Z,28.83
2023-04-09T01:23:35.916Z,28.74
2023-04-09T01:24:35.929Z,28.63
2023-04-09T01:25:35.925Z,28.73
2023-04-09T01:26:35.925Z,28.73
2023-04-09T01:27:35.922Z,28.83
2023-04-09T01:28:35.932Z,28.84
2023-04-09T01:29:35.933Z,28.63
2023-04-09T01:30:35.998Z,28.55
2023-04-09T01:31:35.933Z,28.44
2023-04-09T01:32:35.960Z,28.73
2023-04-09T01:33:35.935Z,28.53
2023-04-09T01:34:35.940Z,28.63
2023-04-09T01:35:35.961Z,28.63
2023-04-09T01:36:35.940Z,28.83
2023-04-09T01:37:35.941Z,28.53
2023-04-09T01:38:35.945Z,28.73
2023-04-09T01:39:35.943Z,28.73
2023-04-09T01:40:35.951Z,28.53
2023-04-09T01:41:35.951Z,28.63
2023-04-09T01:42:35.958Z,28.53
2023-04-09T01:43:35.954Z,28.63
2023-04-09T01:44:35.961Z,28.73
2023-04-09T01:45:35.964Z,28.92
2023-04-09T01:46:36.078Z,28.92
2023-04-09T01:47:35.972Z,28.83
2023-04-09T01:48:35.965Z,28.44
2023-04-09T01:49:35.969Z,28.73
2023-04-09T01:50:35.975Z,28.53
2023-04-09T01:51:35.985Z,28.83
2023-04-09T01:52:35.987Z,28.63
2023-04-09T01:53:35.974Z,28.53
2023-04-09T01:54:35.985Z,28.63
2023-04-09T01:55:35.983Z,28.63
2023-04-09T01:56:35.983Z,28.63
2023-04-09T01:57:35.988Z,28.34
2023-04-09T01:58:35.981Z,28.53
2023-04-09T01:59:35.990Z,28.63
2023-04-09T02:00:35.991Z,28.44
2023-04-09T02:01:36.097Z,28.73
2023-04-09T02:02:36.113Z,28.73
2023-04-09T02:03:36.051Z,28.25
2023-04-09T02:04:35.993Z,28.53
2023-04-09T02:05:36.001Z,28.44
2023-04-09T02:06:36.003Z,28.34
2023-04-09T02:07:36.004Z,28.63
2023-04-09T02:08:36.009Z,28.44
2023-04-09T02:09:36.009Z,28.34
2023-04-09T02:10:36.009Z,28.44
2023-04-09T02:11:36.007Z,28.25
2023-04-09T02:12:36.012Z,28.53
2023-04-09T02:13:36.022Z,28.53
2023-04-09T02:14:36.017Z,28.53
2023-04-09T02:15:36.030Z,28.63
2023-04-09T02:16:36.021Z,28.25
2023-04-09T02:17:36.048Z,28.44
2023-04-09T02:18:36.045Z,28.44
2023-04-09T02:19:36.036Z,28.34
2023-04-09T02:20:36.024Z,28.44
2023-04-09T02:21:36.028Z,28.53
2023-04-09T02:22:36.045Z,28.44
2023-04-09T02:23:36.031Z,28.44
2023-04-09T02:24:36.040Z,28.44
2023-04-09T02:25:36.035Z,28.25
2023-04-09T02:26:36.045Z,28.44
2023-04-09T02:27:36.042Z,28.53
2023-04-09T02:28:36.049Z,28.44
2023-04-09T02:29:36.050Z,28.34
2023-04-09T02:30:36.044Z,28.53
2023-04-09T02:31:36.264Z,28.53
2023-04-09T02:32:36.068Z,28.34
2023-04-09T02:33:36.053Z,28.44
2023-04-09T02:34:36.078Z,28.44
2023-04-09T02:35:36.414Z,28.34
2023-04-09T02:36:36.062Z,28.15
2023-04-09T02:37:36.063Z,28.34
2023-04-09T02:38:36.063Z,28.34
2023-04-09T02:39:36.063Z,28.25
2023-04-09T02:40:36.064Z,28.53
2023-04-09T02:41:36.070Z,28.53
2023-04-09T02:42:36.069Z,28.25
2023-04-09T02:43:36.070Z,28.44
2023-04-09T02:44:36.074Z,28.53
2023-04-09T02:45:36.079Z,28.44
2023-04-09T02:46:36.107Z,28.44
2023-04-09T02:47:36.097Z,28.53
2023-04-09T02:48:36.082Z,28.44
2023-04-09T02:49:36.087Z,28.53
2023-04-09T02:50:36.110Z,28.44
2023-04-09T02:51:36.108Z,28.53
2023-04-09T02:52:36.089Z,28.25
2023-04-09T02:53:36.094Z,28.44
2023-04-09T02:54:36.093Z,28.34
2023-04-09T02:55:36.096Z,28.44
2023-04-09T02:56:36.114Z,28.53
2023-04-09T02:57:36.106Z,28.53
2023-04-09T02:58:36.105Z,28.53
2023-04-09T02:59:36.122Z,28.44
2023-04-09T03:00:36.110Z,28.53
2023-04-09T03:01:36.159Z,28.25
2023-04-09T03:02:36.257Z,28.34
2023-04-09T03:03:36.225Z,28.25
2023-04-09T03:04:36.119Z,28.25
2023-04-09T03:05:36.120Z,28.34
2023-04-09T03:06:36.147Z,28.25
2023-04-09T03:07:36.122Z,28.25
2023-04-09T03:08:36.128Z,28.25
2023-04-09T03:09:36.125Z,28.15
2023-04-09T03:10:36.123Z,28.05
2023-04-09T03:11:36.130Z,27.96
2023-04-09T03:12:36.136Z,28.25
2023-04-09T03:13:36.134Z,28.25
2023-04-09T03:14:36.141Z,27.96
2023-04-09T03:15:36.163Z,28.15
2023-04-09T03:16:36.137Z,27.96
2023-04-09T03:17:36.163Z,28.15
2023-04-09T03:18:36.144Z,28.05
2023-04-09T03:19:36.141Z,28.15
2023-04-09T03:20:36.146Z,28.05
2023-04-09T03:21:36.144Z,28.15
2023-04-09T03:22:36.404Z,28.44
2023-04-09T03:23:36.150Z,28.53
2023-04-09T03:24:36.153Z,28.44
2023-04-09T03:25:36.161Z,28.25
2023-04-09T03:26:36.170Z,28.53
2023-04-09T03:27:36.158Z,28.83
2023-04-09T03:28:36.314Z,28.83
2023-04-09T03:29:36.160Z,28.34
2023-04-09T03:30:36.168Z,28.15
2023-04-09T03:31:36.222Z,28.25
2023-04-09T03:32:36.189Z,28.34
2023-04-09T03:33:36.498Z,28.63
2023-04-09T03:34:36.177Z,28.83
2023-04-09T03:35:36.214Z,28.63
2023-04-09T03:36:36.173Z,28.73
2023-04-09T03:37:36.179Z,28.63
2023-04-09T03:38:36.204Z,28.44
2023-04-09T03:39:36.184Z,28.25
2023-04-09T03:40:36.182Z,28.44
2023-04-09T03:41:36.183Z,28.53
2023-04-09T03:42:36.190Z,28.63
2023-04-09T03:43:36.185Z,28.34
2023-04-09T03:44:36.197Z,28.34
2023-04-09T03:45:36.191Z,27.96
2023-04-09T03:46:36.468Z,28.44
2023-04-09T03:47:36.235Z,28.15
2023-04-09T03:48:36.194Z,28.05
2023-04-09T03:49:36.201Z,28.15
2023-04-09T03:50:36.203Z,28.05
2023-04-09T03:51:36.254Z,28.05
2023-04-09T03:52:36.204Z,28.05
2023-04-09T03:53:36.208Z,28.15
2023-04-09T03:54:36.238Z,28.15
2023-04-09T03:55:36.209Z,28.05
2023-04-09T03:56:36.231Z,28.05
2023-04-09T03:57:36.217Z,28.05
2023-04-09T03:58:36.212Z,28.25
2023-04-09T03:59:36.214Z,28.25
2023-04-09T04:00:36.218Z,28.53
2023-04-09T04:01:36.315Z,28.34
2023-04-09T04:02:36.367Z,28.25
2023-04-09T04:03:36.379Z,28.34
2023-04-09T04:04:36.246Z,28.25
2023-04-09T04:05:36.228Z,28.34
2023-04-09T04:06:36.225Z,28.15
2023-04-09T04:07:36.233Z,28.44
2023-04-09T04:08:36.236Z,28.53
2023-04-09T04:09:36.244Z,28.25
2023-04-09T04:10:36.272Z,28.05
2023-04-09T04:11:36.241Z,28.15
2023-04-09T04:12:36.236Z,28.34
2023-04-09T04:13:36.245Z,28.05
2023-04-09T04:14:36.245Z,28.25
2023-04-09T04:15:36.242Z,28.15
2023-04-09T04:16:36.326Z,28.53
2023-04-09T04:17:36.311Z,28.15
2023-04-09T04:18:36.251Z,27.86
2023-04-09T04:19:36.255Z,27.76
2023-04-09T04:20:36.255Z,27.76
2023-04-09T04:21:36.253Z,27.76
2023-04-09T04:22:36.252Z,27.86
2023-04-09T04:23:36.256Z,27.76
2023-04-09T04:24:36.257Z,28.05
2023-04-09T04:25:36.269Z,27.86
2023-04-09T04:26:36.441Z,27.86
2023-04-09T04:27:36.283Z,27.96
2023-04-09T04:28:36.267Z,27.76
2023-04-09T04:29:36.270Z,27.86
2023-04-09T04:30:36.270Z,27.96
2023-04-09T04:31:36.305Z,27.96
2023-04-09T04:32:36.268Z,27.96
2023-04-09T04:33:36.277Z,28.05
2023-04-09T04:34:36.278Z,27.96
2023-04-09T04:35:36.314Z,27.86
2023-04-09T04:36:36.280Z,27.86
2023-04-09T04:37:36.288Z,27.86
2023-04-09T04:38:36.295Z,27.86
2023-04-09T04:39:36.298Z,27.96
2023-04-09T04:40:36.293Z,27.76
2023-04-09T04:41:36.287Z,27.86
2023-04-09T04:42:36.315Z,27.86
2023-04-09T04:43:36.308Z,27.76
2023-04-09T04:44:36.294Z,27.96
2023-04-09T04:45:36.317Z,27.86
2023-04-09T04:46:36.313Z,27.96
2023-04-09T04:47:36.332Z,28.05
2023-04-09T04:48:36.304Z,28.05
2023-04-09T04:49:36.305Z,27.86
2023-04-09T04:50:36.308Z,27.76
2023-04-09T04:51:36.308Z,27.76
2023-04-09T04:52:36.314Z,27.76
2023-04-09T04:53:36.317Z,27.86
2023-04-09T04:54:36.313Z,27.86
2023-04-09T04:55:36.329Z,27.86
2023-04-09T04:56:36.318Z,27.86
2023-04-09T04:57:36.322Z,27.67
2023-04-09T04:58:36.399Z,27.76
2023-04-09T04:59:36.323Z,27.76
2023-04-09T05:00:36.331Z,27.67
2023-04-09T05:01:36.469Z,27.76
2023-04-09T05:02:36.457Z,27.86
2023-04-09T05:03:36.436Z,27.86
2023-04-09T05:04:36.329Z,27.76
2023-04-09T05:05:36.336Z,28.05
2023-04-09T05:06:36.352Z,27.86
2023-04-09T05:07:36.343Z,27.86
2023-04-09T05:08:36.341Z,27.86
2023-04-09T05:09:36.345Z,27.78
2023-04-09T05:10:36.344Z,27.67
2023-04-09T05:11:36.346Z,27.76
2023-04-09T05:12:36.353Z,27.76
2023-04-09T05:13:36.350Z,27.76
2023-04-09T05:14:36.391Z,27.67
2023-04-09T05:15:36.358Z,27.86
2023-04-09T05:16:36.374Z,27.86
2023-04-09T05:17:36.369Z,27.86
2023-04-09T05:18:36.355Z,27.86
2023-04-09T05:19:36.361Z,27.86
2023-04-09T05:20:36.364Z,27.86
2023-04-09T05:21:36.369Z,27.86
2023-04-09T05:22:36.365Z,27.76
2023-04-09T05:23:36.373Z,27.67
2023-04-09T05:24:36.374Z,27.67
2023-04-09T05:25:36.368Z,27.76
2023-04-09T05:26:36.372Z,27.76
2023-04-09T05:27:36.377Z,27.76
2023-04-09T05:28:36.373Z,27.76
2023-04-09T05:29:36.384Z,27.86
2023-04-09T05:30:36.436Z,27.68
2023-04-09T05:31:36.395Z,27.76
2023-04-09T05:32:36.392Z,27.78
2023-04-09T05:33:36.388Z,27.87
2023-04-09T05:34:36.390Z,27.96
2023-04-09T05:35:36.428Z,28.05
2023-04-09T05:36:36.390Z,28.05
2023-04-09T05:37:36.399Z,28.07
2023-04-09T05:38:36.401Z,28.16
2023-04-09T05:39:36.402Z,27.76
2023-04-09T05:40:36.410Z,27.97
2023-04-09T05:41:36.403Z,27.87
2023-04-09T05:42:36.413Z,27.87
2023-04-09T05:43:36.551Z,27.87
2023-04-09T05:44:36.410Z,28.05
2023-04-09T05:45:36.410Z,28.05
2023-04-09T05:46:36.441Z,27.78
2023-04-09T05:47:36.444Z,27.86
2023-04-09T05:48:36.567Z,27.96
2023-04-09T05:49:36.432Z,27.97
2023-04-09T05:50:47.146Z,28.05
2023-04-09T05:51:36.421Z,28.05
2023-04-09T05:52:36.438Z,28.26
2023-04-09T05:53:36.732Z,27.86
2023-04-09T05:54:36.433Z,28.25
2023-04-09T05:55:36.442Z,28.55
2023-04-09T05:56:36.436Z,28.44
2023-04-09T05:57:36.441Z,27.76
2023-04-09T05:58:36.439Z,28.44
2023-04-09T05:59:36.444Z,28.73
2023-04-09T06:00:36.442Z,27.96
2023-04-09T06:01:36.480Z,28.05
2023-04-09T06:02:36.531Z,28.15
2023-04-09T06:03:36.584Z,28.34
2023-04-09T06:04:36.488Z,28.53
2023-04-09T06:05:36.456Z,28.26
2023-04-09T06:06:36.458Z,28.45
2023-04-09T06:07:36.470Z,28.15
2023-04-09T06:08:36.470Z,28.25
2023-04-09T06:09:36.467Z,28.15
2023-04-09T06:10:36.465Z,28.64
2023-04-09T06:11:36.464Z,28.53
2023-04-09T06:12:36.467Z,28.55
2023-04-09T06:13:36.515Z,28.34
2023-04-09T06:14:36.470Z,28.64
2023-04-09T06:15:36.589Z,28.84
2023-04-09T06:16:36.484Z,28.26
2023-04-09T06:17:36.507Z,28.26
2023-04-09T06:18:36.503Z,28.25
2023-04-09T06:19:36.487Z,28.25
2023-04-09T06:20:36.481Z,28.44
2023-04-09T06:21:36.489Z,28.44
2023-04-09T06:22:36.482Z,28.53
2023-04-09T06:23:36.489Z,28.45
2023-04-09T06:24:36.485Z,28.15
2023-04-09T06:25:36.496Z,28.25
2023-04-09T06:26:36.499Z,28.55
2023-04-09T06:27:36.495Z,28.44
2023-04-09T06:28:36.513Z,28.44
2023-04-09T06:29:36.500Z,28.64
2023-04-09T06:30:36.498Z,28.83
2023-04-09T06:31:36.574Z,28.73
2023-04-09T06:32:46.781Z,28.92
2023-04-09T06:33:36.505Z,29.11
2023-04-09T06:34:36.533Z,29.02
2023-04-09T06:35:36.526Z,28.94
2023-04-09T06:36:36.511Z,29.42
2023-04-09T06:37:36.518Z,29.21
2023-04-09T06:38:36.522Z,29.32
2023-04-09T06:39:38.594Z,29.42
2023-04-09T06:40:36.522Z,28.94
2023-04-09T06:41:36.521Z,28.74
2023-04-09T06:42:36.534Z,29.22
2023-04-09T06:43:36.523Z,29.22
2023-04-09T06:44:36.537Z,28.84
2023-04-09T06:45:36.534Z,29.32
2023-04-09T06:46:36.631Z,29.22
2023-04-09T06:47:36.559Z,29.42
2023-04-09T06:48:36.588Z,29.52
2023-04-09T06:49:36.545Z,29.42
2023-04-09T06:50:36.557Z,29.52
2023-04-09T06:51:36.545Z,29.42
2023-04-09T06:52:36.538Z,29.42
2023-04-09T06:53:36.592Z,29.32
2023-04-09T06:54:36.541Z,29.32
2023-04-09T06:55:36.552Z,29.42
2023-04-09T06:56:36.545Z,29.32
2023-04-09T06:57:36.550Z,29.42
2023-04-09T06:58:36.551Z,28.94
2023-04-09T06:59:36.562Z,29.22
2023-04-09T07:00:36.563Z,28.74
2023-04-09T07:01:36.627Z,29.13
2023-04-09T07:02:36.623Z,29.61
2023-04-09T07:03:36.873Z,29.22
2023-04-09T07:04:36.634Z,29.42
2023-04-09T07:05:36.572Z,29.32
2023-04-09T07:06:36.601Z,29.42
2023-04-09T07:07:36.566Z,29.42
2023-04-09T07:08:36.578Z,29.32
2023-04-09T07:09:36.576Z,29.42
2023-04-09T07:10:36.831Z,29.52
2023-04-09T07:11:36.577Z,29.42
2023-04-09T07:12:36.585Z,29.22
2023-04-09T07:13:36.581Z,29.42
2023-04-09T07:14:36.582Z,29.22
2023-04-09T07:15:36.591Z,29.32
2023-04-09T07:16:36.648Z,29.42
2023-04-09T07:17:36.619Z,29.42
2023-04-09T07:18:36.589Z,29.42
2023-04-09T07:19:36.592Z,29.52
2023-04-09T07:20:36.591Z,29.71
2023-04-09T07:21:36.601Z,29.32
2023-04-09T07:22:36.639Z,29.42
2023-04-09T07:23:36.754Z,29.42
2023-04-09T07:24:36.599Z,29.42
2023-04-09T07:25:36.632Z,29.42
2023-04-09T07:26:36.605Z,28.74
2023-04-09T07:27:36.614Z,29.32
2023-04-09T07:28:36.791Z,29.32
2023-04-09T07:29:36.610Z,29.22
2023-04-09T07:30:36.610Z,29.42
2023-04-09T07:31:36.649Z,29.32
2023-04-09T07:32:36.692Z,29.32
2023-04-09T07:33:36.631Z,28.74
2023-04-09T07:34:36.620Z,29.32
2023-04-09T07:35:36.656Z,29.03
2023-04-09T07:36:36.627Z,29.22
2023-04-09T07:37:36.631Z,29.03
2023-04-09T07:38:36.654Z,29.52
2023-04-09T07:39:36.637Z,29.52
2023-04-09T07:40:36.656Z,29.53
2023-04-09T07:41:36.637Z,29.22
2023-04-09T07:42:36.887Z,29.42
2023-04-09T07:43:36.647Z,29.22
2023-04-09T07:44:36.645Z,29.42
2023-04-09T07:45:36.647Z,28.94
2023-04-09T07:46:36.698Z,29.22
2023-04-09T07:47:36.689Z,29.42
2023-04-09T07:48:36.661Z,29.53
2023-04-09T07:49:36.652Z,29.24
2023-04-09T07:50:36.656Z,29.32
2023-04-09T07:51:36.658Z,29.42
2023-04-09T07:52:36.963Z,29.34
2023-04-09T07:53:36.662Z,29.32
2023-04-09T07:54:36.696Z,29.63
2023-04-09T07:55:36.668Z,29.13
2023-04-09T07:56:36.669Z,29.53
2023-04-09T07:57:36.674Z,29.34
2023-04-09T07:58:36.680Z,29.53
2023-04-09T07:59:36.713Z,29.24
2023-04-09T08:00:36.687Z,29.22
2023-04-09T08:01:36.794Z,29.53
2023-04-09T08:02:36.760Z,29.34
2023-04-09T08:03:37.136Z,29.43
2023-04-09T08:04:36.872Z,29.43
2023-04-09T08:05:36.698Z,29.32
2023-04-09T08:06:36.698Z,29.53
2023-04-09T08:07:36.695Z,29.43
2023-04-09T08:08:36.699Z,29.42
2023-04-09T08:09:36.707Z,29.34
2023-04-09T08:10:36.733Z,29.24
2023-04-09T08:11:36.703Z,29.53
2023-04-09T08:12:36.707Z,29.22
2023-04-09T08:13:36.709Z,29.24
2023-04-09T08:14:36.723Z,29.14
2023-04-09T08:15:36.710Z,29.63
2023-04-09T08:16:36.729Z,29.34
2023-04-09T08:17:36.745Z,29.24
2023-04-09T08:18:36.721Z,29.43
2023-04-09T08:19:36.736Z,29.43
2023-04-09T08:20:36.734Z,29.43
2023-04-09T08:21:36.725Z,29.53
2023-04-09T08:22:36.736Z,29.05
2023-04-09T08:23:36.735Z,29.24
2023-04-09T08:24:36.731Z,29.24
2023-04-09T08:25:36.744Z,28.95
2023-04-09T08:26:36.751Z,28.95
2023-04-09T08:27:36.736Z,28.76
2023-04-09T08:28:36.745Z,28.95
2023-04-09T08:29:36.754Z,28.85
2023-04-09T08:30:36.751Z,28.95
2023-04-09T08:31:36.773Z,28.85
2023-04-09T08:32:36.795Z,28.85
2023-04-09T08:33:36.765Z,28.76
2023-04-09T08:34:36.750Z,28.47
2023-04-09T08:35:36.759Z,28.56
2023-04-09T08:36:36.843Z,28.77
2023-04-09T08:37:36.761Z,28.58
2023-04-09T08:38:36.765Z,28.87
2023-04-09T08:39:36.789Z,28.39
2023-04-09T08:40:36.766Z,28.67
2023-04-09T08:41:36.769Z,28.39
2023-04-09T08:42:36.806Z,28.67
2023-04-09T08:43:56.114Z,28.39
2023-04-09T08:44:36.774Z,28.87
2023-04-09T08:45:36.839Z,28.58
2023-04-09T08:46:36.785Z,28.58
2023-04-09T08:47:36.922Z,28.48
2023-04-09T08:48:36.885Z,28.39
2023-04-09T08:49:36.826Z,28.58
2023-04-09T08:50:36.800Z,28.19
2023-04-09T08:51:36.794Z,28.29
2023-04-09T08:52:36.800Z,28.48
2023-04-09T08:53:36.801Z,28.40
2023-04-09T08:54:36.841Z,28.30
2023-04-09T08:55:36.804Z,28.02
2023-04-09T08:56:36.804Z,27.44
2023-04-09T08:57:36.834Z,25.39
2023-04-09T08:58:36.845Z,23.46
2023-04-09T08:59:36.843Z,23.55
2023-04-09T09:00:36.822Z,22.19
2023-04-09T09:01:36.854Z,21.61
2023-04-09T09:02:36.910Z,24.98
2023-04-09T09:03:36.912Z,23.93
2023-04-09T09:04:36.835Z,25.09
2023-04-09T09:05:36.830Z,25.59
2023-04-09T09:06:36.882Z,26.35
2023-04-09T09:07:36.888Z,26.56
2023-04-09T09:08:36.833Z,26.18
2023-04-09T09:09:36.838Z,25.81
2023-04-09T09:10:36.842Z,25.34
2023-04-09T09:11:36.862Z,24.97
2023-04-09T09:12:36.869Z,24.29
2023-04-09T09:13:36.848Z,23.91
2023-04-09T09:14:36.879Z,24.02
2023-04-09T09:34:36.970Z,26.29
2023-04-09T09:35:36.999Z,26.50
2023-04-09T09:36:36.951Z,26.40
2023-04-09T09:37:36.970Z,26.68
2023-04-09T09:38:36.968Z,26.40
2023-04-09T09:39:36.966Z,26.40
2023-04-09T09:40:36.974Z,25.82
2023-04-09T09:41:37.081Z,25.72
2023-04-09T09:42:36.982Z,25.73
2023-04-09T09:43:36.985Z,25.25
2023-04-09T09:44:36.991Z,25.44
2023-04-09T09:45:36.986Z,25.44
2023-04-09T09:46:37.101Z,25.25
2023-04-09T09:47:37.045Z,25.35
2023-04-09T09:48:37.004Z,25.35
2023-04-09T09:49:37.165Z,25.35
2023-04-09T09:50:37.046Z,24.67
2023-04-09T09:51:37.109Z,25.25
2023-04-09T09:52:37.030Z,25.24
2023-04-09T09:53:37.021Z,25.43
2023-04-09T09:54:37.026Z,25.34
2023-04-09T09:55:37.041Z,25.52
2023-04-09T09:56:37.035Z,25.24
2023-04-09T09:57:37.038Z,25.43
2023-04-09T09:58:37.035Z,25.62
2023-04-09T09:59:37.035Z,25.72
2023-04-09T10:00:37.052Z,25.72
2023-04-09T10:01:37.258Z,25.82
2023-04-09T10:02:37.185Z,25.72
2023-04-09T10:03:37.052Z,25.72
2023-04-09T10:04:37.080Z,25.82
2023-04-09T10:05:37.060Z,25.72
2023-04-09T10:06:37.138Z,25.82
2023-04-09T10:07:37.072Z,25.92
2023-04-09T10:08:37.139Z,26.01
2023-04-09T10:09:37.126Z,26.10
2023-04-09T10:10:37.083Z,26.09
2023-04-09T10:11:37.093Z,26.01
2023-04-09T10:12:37.083Z,26.19
2023-04-09T10:13:37.100Z,26.39
2023-04-09T10:14:37.100Z,26.48
2023-04-09T10:15:37.144Z,26.39
2023-04-09T10:16:37.108Z,26.48
2023-04-09T10:17:37.131Z,26.19
2023-04-09T10:18:37.106Z,26.39
2023-04-09T10:19:37.302Z,26.29
2023-04-09T10:20:37.132Z,26.39
2023-04-09T10:21:37.126Z,26.39
2023-04-09T10:22:37.150Z,26.29
2023-04-09T10:23:37.167Z,26.39
2023-04-09T10:24:37.145Z,26.39
2023-04-09T10:25:37.144Z,26.29
2023-04-09T10:26:37.144Z,26.29
2023-04-09T10:27:37.151Z,26.19
2023-04-09T10:28:37.157Z,26.57
2023-04-09T10:29:37.154Z,26.57
2023-04-09T10:30:37.163Z,26.57
2023-04-09T10:31:37.213Z,26.39
2023-04-09T10:32:37.236Z,26.57
2023-04-09T10:33:37.175Z,26.66
2023-04-09T10:34:37.173Z,26.46
2023-04-09T10:35:37.178Z,26.39
2023-04-09T10:36:37.186Z,26.46
2023-04-09T10:37:37.219Z,26.56
2023-04-09T10:38:37.212Z,26.46
2023-04-09T10:39:37.208Z,26.37
2023-04-09T10:40:37.194Z,26.46
2023-04-09T10:41:37.203Z,26.57
2023-04-09T10:42:37.213Z,26.56
2023-04-09T10:43:37.210Z,26.46
2023-04-09T10:44:37.209Z,26.37
2023-04-09T10:45:37.213Z,31.98
2023-04-09T10:46:37.333Z,27.82
2023-04-09T10:47:37.294Z,27.82
2023-04-09T10:48:37.219Z,27.34
2023-04-09T10:49:37.233Z,26.84
2023-04-09T10:50:37.231Z,25.38
2023-04-09T10:51:37.235Z,25.85
2023-04-09T10:52:37.231Z,25.64
2023-04-09T10:53:37.282Z,25.69
2023-04-09T10:54:37.308Z,25.62
2023-04-09T10:55:37.354Z,24.35
2023-04-09T10:56:37.261Z,24.24
2023-04-09T10:57:37.262Z,25.03
2023-04-09T10:58:37.246Z,23.87
2023-04-09T10:59:37.265Z,25.12
2023-04-09T11:00:37.260Z,24.56
2023-04-09T11:01:37.324Z,23.67
2023-04-09T11:02:37.551Z,24.73
2023-04-09T11:03:37.390Z,23.85
2023-04-09T11:04:37.297Z,25.39
2023-04-09T11:05:37.273Z,24.43
2023-04-09T11:06:37.280Z,24.24
2023-04-09T11:07:37.285Z,24.04
2023-04-09T11:08:37.284Z,23.96
2023-04-09T11:09:37.280Z,23.94
2023-04-09T11:10:37.309Z,24.43
2023-04-09T11:11:37.297Z,24.23
2023-04-09T11:12:37.303Z,25.17
2023-04-09T11:13:37.316Z,24.51
2023-04-09T11:14:37.292Z,25.06
2023-04-09T11:15:37.300Z,25.17
2023-04-09T11:16:37.306Z,25.35
2023-04-09T11:17:37.382Z,25.28
2023-04-09T11:18:37.535Z,24.13
2023-04-09T11:19:37.302Z,24.32
2023-04-09T11:20:37.296Z,23.83
2023-04-09T11:21:37.304Z,24.79
2023-04-09T11:22:37.299Z,24.22
2023-04-09T11:23:37.313Z,24.14
2023-04-09T11:24:37.304Z,24.13
2023-04-09T11:25:37.456Z,24.51
2023-04-09T11:26:37.338Z,24.04
2023-04-09T11:27:37.311Z,23.85
2023-04-09T11:28:37.311Z,23.94
2023-04-09T11:29:37.301Z,24.23
2023-04-09T11:30:37.303Z,24.13
2023-04-09T11:31:37.342Z,24.21
2023-04-09T11:32:37.329Z,24.21
2023-04-09T11:33:37.329Z,25.07
2023-04-09T11:34:37.313Z,24.41
2023-04-09T11:35:37.481Z,25.07
2023-04-09T11:36:37.318Z,25.16
2023-04-09T11:37:37.323Z,25.06
2023-04-09T11:38:37.320Z,26.18
2023-04-09T11:39:37.313Z,26.39
2023-04-09T11:40:37.333Z,26.03
2023-04-09T11:41:37.331Z,25.34
2023-04-09T11:42:37.338Z,25.34
2023-04-09T11:43:37.320Z,25.36
2023-04-09T11:44:37.316Z,25.16
2023-04-09T11:45:37.316Z,24.58
2023-04-09T11:46:37.367Z,25.16
2023-04-09T11:47:37.392Z,26.20
2023-04-09T11:48:37.342Z,25.45
2023-04-09T11:49:37.324Z,25.34
2023-04-09T11:50:37.374Z,25.42
2023-04-09T11:51:37.325Z,26.28
2023-04-09T11:52:37.324Z,25.32
2023-04-09T11:53:37.329Z,25.51
2023-04-09T11:54:37.329Z,26.76
2023-04-09T11:55:37.480Z,26.19
2023-04-09T11:56:37.324Z,25.61
2023-04-09T11:57:37.329Z,26.30
2023-04-09T11:58:37.383Z,25.62
2023-04-09T11:59:37.330Z,25.35
2023-04-09T12:00:37.324Z,25.07
2023-04-09T12:01:37.390Z,25.13
2023-04-09T12:02:37.528Z,26.28
2023-04-09T12:03:37.620Z,25.15
2023-04-09T12:04:37.474Z,25.13
2023-04-09T12:05:39.183Z,26.54
2023-04-09T12:06:37.324Z,26.94
2023-04-09T12:07:37.335Z,26.86
2023-04-09T12:08:37.361Z,25.54
2023-04-09T12:09:37.327Z,24.98
2023-04-09T12:10:37.333Z,25.35
2023-04-09T12:11:37.333Z,25.36
2023-04-09T12:12:37.343Z,24.98
2023-04-09T12:13:37.342Z,25.17
2023-04-09T12:14:37.358Z,25.27
2023-04-09T12:15:37.357Z,25.18
2023-04-09T12:16:37.387Z,24.90
2023-04-09T12:17:37.369Z,24.18
2023-04-09T12:18:37.330Z,26.28
2023-04-09T12:19:37.331Z,26.09
2023-04-09T12:20:37.386Z,26.31
2023-04-09T12:21:37.333Z,25.35
2023-04-09T12:22:37.322Z,25.26
2023-04-09T12:23:37.332Z,25.54
2023-04-09T12:24:37.329Z,25.24
2023-04-09T12:25:37.333Z,25.16
2023-04-09T12:26:37.332Z,24.87
2023-04-09T12:27:37.334Z,24.76
2023-04-09T12:28:37.330Z,26.57
2023-04-09T12:29:37.325Z,26.28
2023-04-09T12:30:37.342Z,26.39
2023-04-09T12:31:37.365Z,25.26
2023-04-09T12:32:37.344Z,24.87
2023-04-09T12:33:37.337Z,24.87
2023-04-09T12:34:37.322Z,25.15
2023-04-09T12:35:37.361Z,25.24
2023-04-09T12:36:37.325Z,25.05
2023-04-09T12:37:37.333Z,25.24
2023-04-09T12:38:37.321Z,24.77
2023-04-09T12:39:37.323Z,25.16
2023-04-09T12:40:37.368Z,24.98
2023-04-09T12:41:37.334Z,24.88
2023-04-09T12:42:37.334Z,24.77
2023-04-09T12:43:37.348Z,25.24
2023-04-09T12:44:37.319Z,25.43
2023-04-09T12:45:37.358Z,25.65
2023-04-09T12:46:37.355Z,25.38
2023-04-09T12:47:37.373Z,24.81
2023-04-09T12:48:37.336Z,24.82
2023-04-09T12:49:37.323Z,24.05
2023-04-09T12:50:37.334Z,24.82
2023-04-09T12:51:37.342Z,24.26
2023-04-09T12:52:37.324Z,23.97
2023-04-09T12:53:37.321Z,24.16
2023-04-09T12:54:37.331Z,24.08
2023-04-09T12:55:37.322Z,23.98
2023-04-09T12:56:37.328Z,24.18
2023-04-09T12:57:37.331Z,24.18
2023-04-09T12:58:37.324Z,24.37
2023-04-09T12:59:37.332Z,24.85
2023-04-09T13:00:37.495Z,24.85
2023-04-09T13:01:37.413Z,24.56
2023-04-09T13:02:37.656Z,24.75
2023-04-09T13:03:37.602Z,24.85
2023-04-09T13:04:37.570Z,24.95
2023-04-09T13:05:37.328Z,25.33
2023-04-09T13:06:37.336Z,25.33
2023-04-09T13:07:37.330Z,25.23
2023-04-09T13:08:37.331Z,25.15
2023-04-09T13:09:37.335Z,25.15
2023-04-09T13:10:37.338Z,25.34
2023-04-09T13:11:37.334Z,25.24